Time;durP1;ratioP1;P1;durP2;ratioP2;P2;SDS_P1;SDS_P2;PMS_P1;PMS_P2;Temp;Humidity;BMP_temperature;BMP_pressure;BME280_temperature;BME280_humidity;BME280_pressure;Samples;Min_cycle;Max_cycle;Signal;HPM_P1;HPM_P2
2022/04/02 00:00:17;;;;;;;;;;;18.70;53.30;;;;;;4993604;28;1891;-70
2022/04/02 00:02:43;;;;;;;;;;;18.80;53.30;;;;;;4993129;28;1229;-70
2022/04/02 00:05:09;;;;;;;;;;;18.80;53.40;;;;;;4991929;28;1006;-70
2022/04/02 00:07:35;;;;;;;;;;;18.70;53.30;;;;;;4992976;28;847;-70
2022/04/02 00:10:01;;;;;;;;;;;18.70;53.40;;;;;;4993651;28;890;-70
2022/04/02 00:12:26;;;;;;;;;;;18.70;53.40;;;;;;4993067;28;1209;-70
2022/04/02 00:14:51;;;;;;;;;;;18.70;53.40;;;;;;4991719;28;1172;-70
2022/04/02 00:17:17;;;;;;;;;;;18.70;53.40;;;;;;4991317;28;955;-70
2022/04/02 00:19:43;;;;;;;;;;;18.70;53.50;;;;;;4992946;28;1899;-70
2022/04/02 00:22:08;;;;;;;;;;;18.70;53.50;;;;;;4991233;28;1237;-70
2022/04/02 00:24:33;;;;;;;;;;;18.70;53.50;;;;;;4993363;28;532;-70
2022/04/02 00:26:59;;;;;;;;;;;18.70;53.50;;;;;;4992470;28;1030;-70
2022/04/02 00:29:24;;;;;;;;;;;18.70;53.50;;;;;;4993149;28;800;-70
2022/04/02 00:31:50;;;;;;;;;;;18.70;54.10;;;;;;4990037;28;1805;-71
2022/04/02 00:34:15;;;;;;;;;;;18.70;53.60;;;;;;4986458;28;1916;-70
2022/04/02 00:36:41;;;;;;;;;;;18.70;53.60;;;;;;4994351;28;1837;-70
2022/04/02 00:39:07;;;;;;;;;;;18.70;53.60;;;;;;4998779;28;2297;-69
2022/04/02 00:41:32;;;;;;;;;;;18.70;53.60;;;;;;5000096;28;1547;-70
2022/04/02 00:43:59;;;;;;;;;;;18.70;53.60;;;;;;4996264;28;1980;-70
2022/04/02 00:46:24;;;;;;;;;;;18.70;53.70;;;;;;4998435;28;1983;-70
2022/04/02 00:48:50;;;;;;;;;;;18.70;53.70;;;;;;4997358;28;2188;-70
2022/04/02 00:51:16;;;;;;;;;;;18.70;53.70;;;;;;5000727;28;1528;-70
2022/04/02 00:53:42;;;;;;;;;;;18.60;53.70;;;;;;4992735;28;1535;-69
2022/04/02 00:56:08;;;;;;;;;;;18.70;53.80;;;;;;4991028;28;888;-70
2022/04/02 00:58:33;;;;;;;;;;;18.70;53.80;;;;;;4992572;28;1898;-69
2022/04/02 01:00:59;;;;;;;;;;;18.70;53.80;;;;;;4991798;28;876;-70
2022/04/02 01:03:25;;;;;;;;;;;18.70;53.80;;;;;;4991938;28;1209;-70
2022/04/02 01:05:50;;;;;;;;;;;18.60;53.80;;;;;;4990859;28;934;-70
2022/04/02 01:08:16;;;;;;;;;;;18.70;53.80;;;;;;4992719;28;816;-69
2022/04/02 01:10:42;;;;;;;;;;;18.70;53.90;;;;;;4991657;28;800;-69
2022/04/02 01:13:08;;;;;;;;;;;18.60;53.80;;;;;;4992742;28;1498;-69
2022/04/02 01:15:34;;;;;;;;;;;18.60;53.90;;;;;;4994285;28;1509;-69
2022/04/02 01:17:59;;;;;;;;;;;18.60;53.90;;;;;;4995623;28;1226;-69
2022/04/02 01:20:25;;;;;;;;;;;18.60;53.90;;;;;;4978690;28;1891;-69
2022/04/02 01:22:50;;;;;;;;;;;18.60;53.90;;;;;;4994663;28;1327;-69
2022/04/02 01:25:15;;;;;;;;;;;18.60;53.90;;;;;;4996288;28;746;-69
2022/04/02 01:27:42;;;;;;;;;;;18.60;53.90;;;;;;4994116;28;1051;-69
2022/04/02 01:30:07;;;;;;;;;;;18.60;54.00;;;;;;4978499;28;1260;-70
2022/04/02 01:32:33;;;;;;;;;;;18.60;53.90;;;;;;4996267;28;1217;-69
2022/04/02 01:34:58;;;;;;;;;;;18.60;53.90;;;;;;4995389;28;825;-69
2022/04/02 01:37:24;;;;;;;;;;;18.60;54.00;;;;;;4995005;28;1046;-69
2022/04/02 01:39:49;;;;;;;;;;;18.60;54.00;;;;;;4994619;28;1962;-69
2022/04/02 01:42:17;;;;;;;;;;;18.60;54.00;;;;;;4994435;28;1600;-69
2022/04/02 01:44:49;;;;;;;;;;;18.60;54.00;;;;;;4995870;28;855;-69
2022/04/02 01:47:15;;;;;;;;;;;18.60;54.00;;;;;;4995216;28;847;-69
2022/04/02 01:49:40;;;;;;;;;;;18.60;54.00;;;;;;4994021;28;866;-70
2022/04/02 01:52:06;;;;;;;;;;;18.60;54.00;;;;;;4994109;28;1285;-70
2022/04/02 01:54:31;;;;;;;;;;;18.60;54.00;;;;;;4995516;28;1074;-70
2022/04/02 01:56:56;;;;;;;;;;;18.60;54.00;;;;;;4993633;28;809;-70
2022/04/02 01:59:22;;;;;;;;;;;18.60;54.00;;;;;;4995869;28;1957;-70
2022/04/02 02:01:47;;;;;;;;;;;18.60;54.00;;;;;;4995800;28;1291;-70
2022/04/02 02:04:13;;;;;;;;;;;18.60;54.10;;;;;;4994543;28;1212;-69
2022/04/02 02:06:39;;;;;;;;;;;18.60;54.10;;;;;;5001388;28;2096;-69
2022/04/02 02:09:05;;;;;;;;;;;18.60;54.10;;;;;;5000553;28;1957;-69
2022/04/02 02:11:30;;;;;;;;;;;18.60;54.10;;;;;;5001227;28;1546;-68
2022/04/02 02:13:56;;;;;;;;;;;18.60;54.10;;;;;;5004434;28;1564;-68
2022/04/02 02:16:21;;;;;;;;;;;18.60;54.10;;;;;;5003254;28;1524;-68
2022/04/02 02:18:46;;;;;;;;;;;18.60;54.10;;;;;;5002360;28;1882;-68
2022/04/02 02:21:13;;;;;;;;;;;18.60;54.10;;;;;;5004793;28;1866;-69
2022/04/02 02:23:39;;;;;;;;;;;18.60;54.10;;;;;;5003217;28;1526;-69
2022/04/02 02:26:04;;;;;;;;;;;18.60;54.20;;;;;;5000912;28;1386;-69
2022/04/02 02:31:02;;;;;;;;;;;18.60;54.20;;;;;;5026726;28;1577;-70
2022/04/02 02:36:11;;;;;;;;;;;18.60;54.20;;;;;;5051119;28;1354;-70
2022/04/02 02:38:37;;;;;;;;;;;18.60;54.30;;;;;;5052536;28;1969;-71
2022/04/02 02:41:03;;;;;;;;;;;18.60;54.30;;;;;;5052811;28;1496;-72
2022/04/02 02:43:28;;;;;;;;;;;18.60;54.30;;;;;;5034924;28;1694;-70
2022/04/02 02:45:54;;;;;;;;;;;18.60;54.30;;;;;;5052114;28;1505;-70
2022/04/02 02:48:19;;;;;;;;;;;18.60;54.30;;;;;;5053752;28;891;-71
2022/04/02 02:50:45;;;;;;;;;;;18.60;54.30;;;;;;5053448;28;1189;-71
2022/04/02 02:53:13;;;;;;;;;;;18.60;54.30;;;;;;5053463;28;834;-70
2022/04/02 02:55:38;;;;;;;;;;;18.60;54.30;;;;;;5035798;28;835;-71
2022/04/02 02:58:04;;;;;;;;;;;18.60;54.40;;;;;;5035660;28;858;-70
2022/04/02 03:00:29;;;;;;;;;;;18.60;54.40;;;;;;5035647;28;1906;-70
2022/04/02 03:02:55;;;;;;;;;;;18.60;54.40;;;;;;5053518;28;890;-70
2022/04/02 03:05:20;;;;;;;;;;;18.60;54.40;;;;;;5053495;28;933;-70
2022/04/02 03:07:49;;;;;;;;;;;18.60;54.40;;;;;;5052806;28;938;-70
2022/04/02 03:10:22;;;;;;;;;;;18.60;54.40;;;;;;5053454;28;1279;-70
2022/04/02 03:12:48;;;;;;;;;;;18.60;54.40;;;;;;5035138;28;1412;-71
2022/04/02 03:15:13;;;;;;;;;;;18.60;54.40;;;;;;5027277;28;1431;-70
2022/04/02 03:17:39;;;;;;;;;;;18.60;54.50;;;;;;5032768;28;769;-70
2022/04/02 03:20:05;;;;;;;;;;;18.60;54.50;;;;;;5015600;28;1902;-70
2022/04/02 03:22:35;;;;;;;;;;;18.60;54.50;;;;;;5032010;28;1061;-71
2022/04/02 03:25:01;;;;;;;;;;;18.60;54.50;;;;;;5032041;28;846;-69
2022/04/02 03:27:26;;;;;;;;;;;18.60;54.50;;;;;;5032763;28;776;-69
2022/04/02 03:29:52;;;;;;;;;;;18.60;54.50;;;;;;5032623;28;1308;-70
2022/04/02 03:32:18;;;;;;;;;;;18.60;54.50;;;;;;5032917;28;840;-69
2022/04/02 03:34:43;;;;;;;;;;;18.60;54.60;;;;;;5033011;28;1025;-69
2022/04/02 03:37:09;;;;;;;;;;;18.60;54.60;;;;;;5021771;28;1441;-70
2022/04/02 03:39:34;;;;;;;;;;;18.50;54.50;;;;;;5032774;28;1866;-68
2022/04/02 03:42:00;;;;;;;;;;;18.50;54.60;;;;;;5032969;28;1188;-68
2022/04/02 03:44:26;;;;;;;;;;;18.60;54.60;;;;;;5033079;28;871;-68
2022/04/02 03:47:09;;;;;;;;;;;18.50;54.60;;;;;;5032246;28;930;-68
2022/04/02 03:49:35;;;;;;;;;;;18.50;54.60;;;;;;5017938;28;1245;-68
2022/04/02 03:52:01;;;;;;;;;;;18.50;54.70;;;;;;5014828;28;911;-68
2022/04/02 03:54:26;;;;;;;;;;;18.50;54.60;;;;;;5032878;28;805;-71
2022/04/02 03:56:52;;;;;;;;;;;18.50;54.60;;;;;;5032317;28;759;-69
2022/04/02 03:59:17;;;;;;;;;;;18.50;54.70;;;;;;5032378;28;1898;-70
2022/04/02 04:01:42;;;;;;;;;;;18.50;54.70;;;;;;5015189;28;1516;-69
2022/04/02 04:04:08;;;;;;;;;;;18.50;54.70;;;;;;5015280;28;938;-69
2022/04/02 04:06:34;;;;;;;;;;;18.50;54.70;;;;;;5032107;28;895;-71
2022/04/02 04:08:59;;;;;;;;;;;18.50;54.70;;;;;;5015190;28;1279;-71
2022/04/02 04:11:28;;;;;;;;;;;18.50;54.70;;;;;;5015072;28;787;-70
2022/04/02 04:13:53;;;;;;;;;;;18.50;54.70;;;;;;5032513;28;1577;-70
2022/04/02 04:16:19;;;;;;;;;;;18.50;54.80;;;;;;5014152;28;1186;-70
2022/04/02 04:18:44;;;;;;;;;;;18.50;54.80;;;;;;5014795;28;1903;-70
2022/04/02 04:21:11;;;;;;;;;;;18.50;54.80;;;;;;5032501;28;892;-70
2022/04/02 04:23:36;;;;;;;;;;;18.50;54.80;;;;;;5015092;28;839;-70
2022/04/02 04:26:02;;;;;;;;;;;18.50;54.80;;;;;;5031734;28;804;-70
2022/04/02 04:28:28;;;;;;;;;;;18.50;54.80;;;;;;5014923;28;938;-70
2022/04/02 04:30:54;;;;;;;;;;;18.50;54.80;;;;;;5032088;28;1585;-69
2022/04/02 04:33:19;;;;;;;;;;;18.50;54.80;;;;;;5032694;28;1208;-69
2022/04/02 04:35:45;;;;;;;;;;;18.50;54.80;;;;;;5031935;28;1422;-69
2022/04/02 04:38:10;;;;;;;;;;;18.50;54.80;;;;;;5032127;28;1896;-70
2022/04/02 04:40:36;;;;;;;;;;;18.50;54.80;;;;;;5032169;28;1190;-69
2022/04/02 04:43:01;;;;;;;;;;;18.50;54.80;;;;;;5032533;28;831;-67
2022/04/02 04:45:27;;;;;;;;;;;18.50;54.70;;;;;;5032219;28;778;-68
2022/04/02 04:47:52;;;;;;;;;;;18.60;54.70;;;;;;5032437;28;803;-69
2022/04/02 04:50:18;;;;;;;;;;;18.60;55.30;;;;;;5036265;28;1170;-68
2022/04/02 04:52:44;;;;;;;;;;;18.60;54.60;;;;;;5034903;28;910;-68
2022/04/02 04:55:10;;;;;;;;;;;18.60;54.50;;;;;;5035914;28;843;-69
2022/04/02 04:57:35;;;;;;;;;;;18.70;54.50;;;;;;5035424;28;852;-69
2022/04/02 05:00:01;;;;;;;;;;;18.70;54.40;;;;;;5035505;28;1955;-69
2022/04/02 05:02:26;;;;;;;;;;;18.70;54.30;;;;;;5035826;28;844;-69
2022/04/02 05:04:51;;;;;;;;;;;18.70;54.20;;;;;;5035882;28;844;-70
2022/04/02 05:07:18;;;;;;;;;;;18.80;54.20;;;;;;5035242;28;792;-70
2022/04/02 05:09:44;;;;;;;;;;;18.80;54.10;;;;;;5035764;28;1205;-69
2022/04/02 05:12:10;;;;;;;;;;;18.90;54.10;;;;;;5034561;28;795;-68
2022/04/02 05:14:35;;;;;;;;;;;18.80;54.00;;;;;;5029052;28;1547;-68
2022/04/02 05:17:01;;;;;;;;;;;18.90;54.00;;;;;;5033750;28;943;-68
2022/04/02 05:19:26;;;;;;;;;;;18.90;53.90;;;;;;5034082;28;1965;-68
2022/04/02 05:21:52;;;;;;;;;;;18.90;53.90;;;;;;5035457;28;989;-68
2022/04/02 05:24:17;;;;;;;;;;;18.90;53.80;;;;;;5036038;28;797;-68
2022/04/02 05:26:43;;;;;;;;;;;18.90;53.80;;;;;;5034924;28;835;-69
2022/04/02 05:29:10;;;;;;;;;;;18.90;53.80;;;;;;5035409;28;1288;-69
2022/04/02 05:31:36;;;;;;;;;;;18.90;53.80;;;;;;5023611;28;2252;-67
2022/04/02 05:34:01;;;;;;;;;;;18.90;53.80;;;;;;5032452;28;2279;-66
2022/04/02 05:36:26;;;;;;;;;;;18.90;53.70;;;;;;5034968;28;1898;-68
2022/04/02 05:38:52;;;;;;;;;;;18.90;53.80;;;;;;5031288;28;1902;-68
2022/04/02 05:41:17;;;;;;;;;;;18.90;53.70;;;;;;5033324;28;2259;-68
2022/04/02 05:43:43;;;;;;;;;;;19.00;53.80;;;;;;5035027;28;1393;-69
2022/04/02 05:46:09;;;;;;;;;;;18.90;53.70;;;;;;5034199;28;1681;-70
2022/04/02 05:48:35;;;;;;;;;;;18.90;53.70;;;;;;5034882;28;1258;-71
2022/04/02 05:51:00;;;;;;;;;;;18.90;53.70;;;;;;5017276;28;937;-71
2022/04/02 05:53:26;;;;;;;;;;;18.90;53.70;;;;;;5035032;28;1049;-68
2022/04/02 05:55:51;;;;;;;;;;;18.90;53.70;;;;;;5028174;28;2303;-68
2022/04/02 05:58:16;;;;;;;;;;;19.00;53.80;;;;;;5033654;28;1936;-68
2022/04/02 06:00:42;;;;;;;;;;;19.00;53.70;;;;;;5012757;28;1545;-68
2022/04/02 06:03:07;;;;;;;;;;;18.90;53.70;;;;;;5017345;28;1549;-68
2022/04/02 06:05:33;;;;;;;;;;;19.00;53.80;;;;;;5016234;28;1561;-70
2022/04/02 06:07:58;;;;;;;;;;;19.00;53.70;;;;;;5000198;28;1426;-67
2022/04/02 06:10:24;;;;;;;;;;;19.00;53.70;;;;;;5034645;28;1616;-70
2022/04/02 06:12:51;;;;;;;;;;;19.00;53.80;;;;;;5034653;28;1515;-69
2022/04/02 06:15:16;;;;;;;;;;;19.00;53.80;;;;;;5017069;28;1401;-69
2022/04/02 06:17:42;;;;;;;;;;;19.00;53.80;;;;;;5034008;28;1114;-69
2022/04/02 06:20:08;;;;;;;;;;;19.00;53.70;;;;;;5034636;28;1910;-69
2022/04/02 06:22:34;;;;;;;;;;;19.00;53.70;;;;;;5034753;28;1521;-69
2022/04/02 06:25:00;;;;;;;;;;;19.00;53.70;;;;;;5017112;28;877;-67
2022/04/02 06:27:25;;;;;;;;;;;19.00;53.70;;;;;;5002774;28;1558;-68
2022/04/02 06:29:51;;;;;;;;;;;19.00;53.60;;;;;;5033250;28;1289;-69
2022/04/02 06:32:16;;;;;;;;;;;19.00;53.70;;;;;;5033715;28;808;-69
2022/04/02 06:34:42;;;;;;;;;;;19.00;53.70;;;;;;5033595;28;1000;-68
2022/04/02 06:37:07;;;;;;;;;;;19.00;53.70;;;;;;5031395;28;1457;-68
2022/04/02 06:39:32;;;;;;;;;;;19.00;53.70;;;;;;5027546;28;2057;-70
2022/04/02 06:41:58;;;;;;;;;;;19.00;53.60;;;;;;5033118;28;832;-68
2022/04/02 06:44:24;;;;;;;;;;;19.00;53.70;;;;;;5033107;28;1520;-69
2022/04/02 06:46:49;;;;;;;;;;;19.00;53.70;;;;;;5032730;28;1447;-70
2022/04/02 06:49:14;;;;;;;;;;;19.00;53.70;;;;;;5033141;28;1652;-69
2022/04/02 06:51:40;;;;;;;;;;;19.00;53.70;;;;;;5033708;28;870;-69
2022/04/02 06:54:06;;;;;;;;;;;19.00;53.70;;;;;;5032905;28;772;-70
2022/04/02 06:56:31;;;;;;;;;;;19.00;53.70;;;;;;5036357;28;899;-69
2022/04/02 06:58:57;;;;;;;;;;;19.00;53.70;;;;;;5017190;28;2220;-68
2022/04/02 07:01:22;;;;;;;;;;;19.00;53.70;;;;;;5016864;28;875;-68
2022/04/02 07:03:47;;;;;;;;;;;19.00;53.70;;;;;;5028739;28;2324;-68
2022/04/02 07:06:13;;;;;;;;;;;19.00;53.70;;;;;;5030149;28;2090;-69
2022/04/02 07:08:38;;;;;;;;;;;19.00;53.70;;;;;;5016871;28;1561;-67
2022/04/02 07:11:04;;;;;;;;;;;19.00;53.70;;;;;;5033918;28;1557;-70
2022/04/02 07:13:30;;;;;;;;;;;19.00;53.70;;;;;;5030566;28;2291;-69
2022/04/02 07:15:55;;;;;;;;;;;19.00;53.70;;;;;;5032868;28;1543;-69
2022/04/02 07:18:21;;;;;;;;;;;19.00;53.70;;;;;;5033189;28;1902;-69
2022/04/02 07:20:46;;;;;;;;;;;19.10;53.70;;;;;;5030349;28;1393;-70
2022/04/02 07:23:12;;;;;;;;;;;19.10;53.60;;;;;;5033382;28;1607;-69
2022/04/02 07:25:38;;;;;;;;;;;19.20;53.50;;;;;;5031577;28;860;-69
2022/04/02 07:28:03;;;;;;;;;;;19.30;53.30;;;;;;5032060;28;843;-69
2022/04/02 07:30:29;;;;;;;;;;;19.50;53.20;;;;;;5032624;28;1267;-69
2022/04/02 07:32:54;;;;;;;;;;;19.50;53.10;;;;;;5015359;28;1371;-69
2022/04/02 07:35:20;;;;;;;;;;;19.70;52.90;;;;;;5033521;28;786;-69
2022/04/02 07:38:02;;;;;;;;;;;19.80;52.70;;;;;;5032743;28;1431;-69
2022/04/02 07:40:34;;;;;;;;;;;19.90;52.50;;;;;;5031932;28;1906;-69
2022/04/02 07:43:04;;;;;;;;;;;20.00;52.20;;;;;;5015932;28;1078;-70
2022/04/02 07:45:39;;;;;;;;;;;20.10;52.00;;;;;;5033119;28;1013;-69
2022/04/02 07:48:06;;;;;;;;;;;20.20;51.80;;;;;;5031812;28;823;-69
2022/04/02 07:50:31;;;;;;;;;;;20.30;51.60;;;;;;5031891;28;1232;-69
2022/04/02 07:52:57;;;;;;;;;;;20.40;51.40;;;;;;5015068;28;987;-67
2022/04/02 07:55:22;;;;;;;;;;;20.50;51.20;;;;;;5033120;28;784;-68
2022/04/02 07:57:49;;;;;;;;;;;20.60;51.00;;;;;;5030939;28;993;-68
2022/04/02 08:00:15;;;;;;;;;;;20.60;50.80;;;;;;5032786;28;1910;-68
2022/04/02 08:02:43;;;;;;;;;;;20.70;50.80;;;;;;5032998;28;916;-68
2022/04/02 08:05:10;;;;;;;;;;;20.70;50.60;;;;;;5033266;28;867;-68
2022/04/02 08:07:39;;;;;;;;;;;20.80;50.50;;;;;;5031854;28;834;-67
2022/04/02 08:10:06;;;;;;;;;;;20.80;50.40;;;;;;5015288;28;1189;-68
2022/04/02 08:12:35;;;;;;;;;;;20.90;50.40;;;;;;5033041;28;851;-68
2022/04/02 08:15:01;;;;;;;;;;;20.90;50.30;;;;;;5032912;28;1496;-69
2022/04/02 08:17:26;;;;;;;;;;;20.90;50.20;;;;;;5030962;28;1632;-69
2022/04/02 08:19:52;;;;;;;;;;;20.90;50.20;;;;;;5031558;28;1906;-68
2022/04/02 08:22:17;;;;;;;;;;;21.00;50.30;;;;;;5031468;28;843;-69
2022/04/02 08:24:43;;;;;;;;;;;20.90;50.20;;;;;;5037228;28;792;-69
2022/04/02 08:27:15;;;;;;;;;;;20.90;50.20;;;;;;5036860;28;814;-69
2022/04/02 08:29:59;;;;;;;;;;;21.00;50.30;;;;;;5034950;28;1263;-69
2022/04/02 08:32:27;;;;;;;;;;;21.00;50.40;;;;;;5035426;28;1109;-68
2022/04/02 08:34:55;;;;;;;;;;;20.90;50.40;;;;;;5036494;28;851;-68
2022/04/02 08:37:21;;;;;;;;;;;20.90;50.30;;;;;;5050970;22;2038;-72
2022/04/02 08:39:57;;;;;;;;;;;20.90;50.40;;;;;;5037135;28;1950;-71
2022/04/02 08:42:30;;;;;;;;;;;20.90;50.40;;;;;;5018357;28;1179;-71
2022/04/02 08:45:03;;;;;;;;;;;20.90;50.40;;;;;;5035938;28;1143;-70
2022/04/02 08:47:29;;;;;;;;;;;20.90;50.40;;;;;;5034901;28;1220;-70
2022/04/02 08:50:10;;;;;;;;;;;20.90;50.40;;;;;;5035834;28;1093;-70
2022/04/02 08:52:55;;;;;;;;;;;20.90;50.50;;;;;;5035656;28;808;-70
2022/04/02 08:55:24;;;;;;;;;;;20.90;50.50;;;;;;5018229;28;906;-70
2022/04/02 08:57:52;;;;;;;;;;;20.80;50.50;;;;;;5035663;28;1193;-72
2022/04/02 09:00:24;;;;;;;;;;;20.80;50.60;;;;;;5035633;28;1946;-72
2022/04/02 09:03:09;;;;;;;;;;;20.80;50.70;;;;;;5046312;28;1175;-72
2022/04/02 09:05:50;;;;;;;;;;;20.80;50.70;;;;;;5055248;28;862;-71
2022/04/02 09:08:35;;;;;;;;;;;20.70;50.80;;;;;;5037702;28;1345;-71
2022/04/02 09:11:18;;;;;;;;;;;20.70;50.90;;;;;;5054514;28;831;-71
2022/04/02 09:14:02;;;;;;;;;;;20.70;50.90;;;;;;5055057;28;1190;-71
2022/04/02 09:16:31;;;;;;;;;;;20.70;51.00;;;;;;5054885;28;906;-70
2022/04/02 09:19:15;;;;;;;;;;;20.60;51.00;;;;;;5037183;28;1902;-70
2022/04/02 09:21:59;;;;;;;;;;;20.60;51.10;;;;;;5055521;28;997;-71
2022/04/02 09:24:24;;;;;;;;;;;20.60;51.10;;;;;;5037930;28;831;-70
2022/04/02 09:26:58;;;;;;;;;;;20.60;51.20;;;;;;5054654;28;1225;-71
2022/04/02 09:29:27;;;;;;;;;;;20.60;51.20;;;;;;5055039;28;698;-70
2022/04/02 09:32:11;;;;;;;;;;;20.60;51.30;;;;;;5037333;28;918;-70
2022/04/02 09:34:56;;;;;;;;;;;20.50;51.30;;;;;;5053592;28;1009;-70
2022/04/02 09:37:36;;;;;;;;;;;20.50;51.30;;;;;;5054225;28;1360;-72
2022/04/02 09:40:02;;;;;;;;;;;20.50;51.40;;;;;;5055224;28;1950;-73
2022/04/02 09:42:30;;;;;;;;;;;20.50;51.40;;;;;;5053908;28;1033;-72
2022/04/02 09:45:03;;;;;;;;;;;20.50;51.50;;;;;;5053315;28;799;-73
2022/04/02 09:47:47;;;;;;;;;;;20.50;51.50;;;;;;5053103;28;1290;-74
2022/04/02 09:50:16;;;;;;;;;;;20.40;51.60;;;;;;5053669;28;1542;-71
2022/04/02 09:52:44;;;;;;;;;;;20.40;51.60;;;;;;5055019;28;771;-71
2022/04/02 09:55:14;;;;;;;;;;;20.40;51.60;;;;;;5053963;28;812;-72
2022/04/02 09:57:45;;;;;;;;;;;20.40;51.70;;;;;;5054005;28;1205;-71
2022/04/02 10:00:13;;;;;;;;;;;20.40;51.70;;;;;;5054490;28;1959;-71
2022/04/02 10:03:00;;;;;;;;;;;20.40;51.70;;;;;;5053301;28;945;-73
2022/04/02 10:05:36;;;;;;;;;;;20.40;51.80;;;;;;5053374;28;922;-71
2022/04/02 10:08:05;;;;;;;;;;;20.30;51.80;;;;;;5053277;28;1201;-70
2022/04/02 10:10:31;;;;;;;;;;;20.30;51.80;;;;;;5053190;28;755;-69
2022/04/02 10:12:56;;;;;;;;;;;20.30;51.80;;;;;;5053153;28;1223;-69
2022/04/02 10:15:24;;;;;;;;;;;20.30;51.80;;;;;;5049101;28;1194;-70
2022/04/02 10:17:52;;;;;;;;;;;20.30;51.90;;;;;;5053639;28;1632;-69
2022/04/02 10:20:20;;;;;;;;;;;20.30;51.90;;;;;;5054721;28;1906;-72
2022/04/02 10:22:46;;;;;;;;;;;20.30;51.90;;;;;;5054418;28;823;-71
2022/04/02 10:25:13;;;;;;;;;;;20.30;52.00;;;;;;5052806;28;906;-72
2022/04/02 10:27:42;;;;;;;;;;;20.20;52.00;;;;;;5035415;28;1604;-71
2022/04/02 10:30:07;;;;;;;;;;;20.30;52.00;;;;;;5064625;28;1156;-73
2022/04/02 10:32:38;;;;;;;;;;;20.20;52.00;;;;;;5062472;28;1290;-71
2022/04/02 10:35:05;;;;;;;;;;;20.20;52.10;;;;;;5027452;28;1313;-70
2022/04/02 10:37:49;;;;;;;;;;;20.20;52.10;;;;;;5061783;28;1286;-71
2022/04/02 10:40:16;;;;;;;;;;;20.20;52.10;;;;;;5060251;28;1938;-70
2022/04/02 10:42:43;;;;;;;;;;;20.20;52.20;;;;;;5035744;28;850;-69
2022/04/02 10:45:12;;;;;;;;;;;20.10;52.20;;;;;;5055860;28;1498;-71
2022/04/02 10:47:39;;;;;;;;;;;20.10;52.20;;;;;;5044696;28;1364;-70
2022/04/02 10:50:05;;;;;;;;;;;20.20;52.90;;;;;;5043057;28;1188;-69
2022/04/02 10:52:30;;;;;;;;;;;20.20;52.30;;;;;;5062331;28;1203;-72
2022/04/02 10:54:56;;;;;;;;;;;20.10;52.30;;;;;;5055697;28;1843;-70
2022/04/02 10:57:21;;;;;;;;;;;20.10;52.30;;;;;;5043009;28;1327;-70
2022/04/02 10:59:47;;;;;;;;;;;20.10;52.40;;;;;;5053569;28;1950;-71
2022/04/02 11:02:21;;;;;;;;;;;20.10;52.50;;;;;;5052217;28;902;-70
2022/04/02 11:04:56;;;;;;;;;;;20.10;52.50;;;;;;5053400;28;799;-70
2022/04/02 11:07:34;;;;;;;;;;;20.10;52.50;;;;;;5052551;28;1224;-70
2022/04/02 11:09:59;;;;;;;;;;;20.10;52.60;;;;;;5052127;28;875;-70
2022/04/02 11:12:29;;;;;;;;;;;20.00;52.50;;;;;;5052050;28;815;-70
2022/04/02 11:14:54;;;;;;;;;;;20.00;52.60;;;;;;5052951;28;1198;-71
2022/04/02 11:17:33;;;;;;;;;;;20.10;52.60;;;;;;5023805;28;1409;-70
2022/04/02 11:20:02;;;;;;;;;;;20.00;52.50;;;;;;5060298;28;1959;-70
2022/04/02 11:22:29;;;;;;;;;;;20.10;52.60;;;;;;5032673;28;1887;-71
2022/04/02 11:25:03;;;;;;;;;;;20.10;52.50;;;;;;5027086;28;1878;-69
2022/04/02 11:27:28;;;;;;;;;;;20.10;52.50;;;;;;5038418;28;2026;-67
2022/04/02 11:29:56;;;;;;;;;;;20.10;53.00;;;;;;5050691;28;1862;-68
2022/04/02 11:32:27;;;;;;;;;;;20.10;52.40;;;;;;5039529;28;2205;-70
2022/04/02 11:34:53;;;;;;;;;;;20.10;52.40;;;;;;5031602;28;1172;-68
2022/04/02 11:37:19;;;;;;;;;;;20.10;52.40;;;;;;5042208;28;1476;-68
2022/04/02 11:39:55;;;;;;;;;;;20.10;52.40;;;;;;5051855;28;1965;-70
2022/04/02 11:42:24;;;;;;;;;;;20.10;52.40;;;;;;5028665;28;1883;-72
2022/04/02 11:44:50;;;;;;;;;;;20.10;52.40;;;;;;5044148;28;1674;-72
2022/04/02 11:47:15;;;;;;;;;;;20.10;52.40;;;;;;5037246;28;1545;-72
2022/04/02 11:49:43;;;;;;;;;;;20.10;52.50;;;;;;5036545;28;1246;-71
2022/04/02 11:52:11;;;;;;;;;;;20.10;52.50;;;;;;5055748;28;1415;-71
2022/04/02 11:54:41;;;;;;;;;;;20.10;52.50;;;;;;5033790;28;1885;-70
2022/04/02 11:57:10;;;;;;;;;;;20.10;52.50;;;;;;5045486;28;1526;-71
2022/04/02 11:59:35;;;;;;;;;;;20.10;52.50;;;;;;5037056;28;1898;-71
2022/04/02 12:02:01;;;;;;;;;;;20.10;52.60;;;;;;5037881;28;1331;-70
2022/04/02 12:04:26;;;;;;;;;;;20.00;52.50;;;;;;5056858;28;1991;-70
2022/04/02 12:06:52;;;;;;;;;;;20.10;52.60;;;;;;5047132;28;1488;-68
2022/04/02 12:09:21;;;;;;;;;;;20.00;52.60;;;;;;5050565;28;1091;-75
2022/04/02 12:11:48;;;;;;;;;;;20.00;52.60;;;;;;5059846;28;1071;-74
2022/04/02 12:14:24;;;;;;;;;;;20.00;52.60;;;;;;5042395;28;1341;-67
2022/04/02 12:16:54;;;;;;;;;;;20.00;52.70;;;;;;5056256;28;1317;-70
2022/04/02 12:19:21;;;;;;;;;;;20.00;52.70;;;;;;5033032;28;1949;-71
2022/04/02 12:21:47;;;;;;;;;;;20.00;52.80;;;;;;5051534;28;1950;-71
2022/04/02 12:24:12;;;;;;;;;;;20.00;52.80;;;;;;5037792;28;1686;-72
2022/04/02 12:26:37;;;;;;;;;;;20.00;52.80;;;;;;5042452;28;1610;-73
2022/04/02 12:29:03;;;;;;;;;;;19.90;52.80;;;;;;5040314;28;1247;-69
2022/04/02 12:31:30;;;;;;;;;;;19.90;52.80;;;;;;5042911;28;1220;-71
2022/04/02 12:33:56;;;;;;;;;;;19.90;52.80;;;;;;5060277;28;1282;-71
2022/04/02 12:36:28;;;;;;;;;;;19.90;52.90;;;;;;5056158;28;1933;-71
2022/04/02 12:38:57;;;;;;;;;;;19.90;52.90;;;;;;5057498;28;1898;-74
2022/04/02 12:41:23;;;;;;;;;;;19.90;52.90;;;;;;5034481;28;1451;-73
2022/04/02 12:43:48;;;;;;;;;;;19.90;52.90;;;;;;5043538;28;1471;-74
2022/04/02 12:46:20;;;;;;;;;;;19.90;52.90;;;;;;5051695;28;1458;-72
2022/04/02 12:48:46;;;;;;;;;;;19.90;53.00;;;;;;5032279;28;1294;-69
2022/04/02 12:51:12;;;;;;;;;;;19.90;53.00;;;;;;5059699;28;1222;-71
2022/04/02 12:53:38;;;;;;;;;;;19.90;53.00;;;;;;5043826;28;1247;-70
2022/04/02 12:56:07;;;;;;;;;;;19.80;53.00;;;;;;5063305;28;1219;-71
2022/04/02 12:58:43;;;;;;;;;;;19.80;53.10;;;;;;5045188;28;1898;-70
2022/04/02 13:01:15;;;;;;;;;;;19.80;53.10;;;;;;5058697;28;1349;-71
2022/04/02 13:03:44;;;;;;;;;;;19.80;53.10;;;;;;5040586;28;1302;-70
2022/04/02 13:06:15;;;;;;;;;;;19.80;53.10;;;;;;5040506;28;1928;-70
2022/04/02 13:08:48;;;;;;;;;;;19.80;53.10;;;;;;5062445;28;1315;-73
2022/04/02 13:11:13;;;;;;;;;;;19.80;53.10;;;;;;5047926;28;1279;-70
2022/04/02 13:13:39;;;;;;;;;;;19.80;53.20;;;;;;5038526;28;1955;-70
2022/04/02 13:16:04;;;;;;;;;;;19.80;53.20;;;;;;5062218;28;1194;-72
2022/04/02 13:21:16;;;;;;;;;;;19.80;53.30;;;;;;5045443;28;975;-70
2022/04/02 13:24:09;;;;;;;;;;;19.70;53.30;;;;;;5053541;28;1119;-69
2022/04/02 13:26:34;;;;;;;;;;;19.70;53.20;;;;;;5037015;28;1406;-70
2022/04/02 13:29:07;;;;;;;;;;;19.70;53.30;;;;;;5036351;28;1143;-71
2022/04/02 13:31:34;;;;;;;;;;;19.70;53.30;;;;;;5056146;28;1279;-71
2022/04/02 13:34:16;;;;;;;;;;;19.70;53.40;;;;;;5037881;28;1362;-71
2022/04/02 13:36:48;;;;;;;;;;;19.70;53.40;;;;;;5054865;28;1688;-70
2022/04/02 13:39:15;;;;;;;;;;;19.70;53.40;;;;;;5051214;28;1947;-70
2022/04/02 13:41:41;;;;;;;;;;;19.60;53.40;;;;;;5037288;28;1284;-70
2022/04/02 13:44:15;;;;;;;;;;;19.70;53.40;;;;;;5037181;28;1374;-69
2022/04/02 13:46:47;;;;;;;;;;;19.60;53.40;;;;;;5036524;28;1313;-69
2022/04/02 13:49:12;;;;;;;;;;;19.60;53.40;;;;;;5053913;28;1174;-72
2022/04/02 13:51:46;;;;;;;;;;;19.60;53.50;;;;;;5036758;28;1439;-71
2022/04/02 13:54:23;;;;;;;;;;;19.70;53.50;;;;;;5054651;28;1264;-70
2022/04/02 13:57:01;;;;;;;;;;;19.60;53.50;;;;;;5036494;28;1286;-70
2022/04/02 13:59:28;;;;;;;;;;;19.60;53.50;;;;;;5036506;28;2611;-70
2022/04/02 14:01:54;;;;;;;;;;;19.60;53.50;;;;;;5034533;28;2296;-70
2022/04/02 14:04:30;;;;;;;;;;;19.60;53.60;;;;;;5043920;28;1185;-70
2022/04/02 14:06:56;;;;;;;;;;;19.60;53.60;;;;;;5033377;28;1329;-70
2022/04/02 14:09:21;;;;;;;;;;;19.60;53.60;;;;;;5033979;28;1116;-70
2022/04/02 14:11:47;;;;;;;;;;;19.60;53.60;;;;;;5036218;28;1318;-70
2022/04/02 14:14:13;;;;;;;;;;;19.50;53.60;;;;;;5036202;28;1282;-70
2022/04/02 14:16:38;;;;;;;;;;;19.60;53.70;;;;;;5053137;28;1341;-70
2022/04/02 14:19:07;;;;;;;;;;;19.50;53.70;;;;;;5035871;28;1965;-71
2022/04/02 14:21:33;;;;;;;;;;;19.50;53.70;;;;;;5035302;28;1213;-70
2022/04/02 14:24:03;;;;;;;;;;;19.60;53.70;;;;;;5054360;28;867;-70
2022/04/02 14:26:31;;;;;;;;;;;19.50;53.70;;;;;;5037179;28;1387;-70
2022/04/02 14:29:02;;;;;;;;;;;19.60;53.70;;;;;;5053880;28;1341;-70
2022/04/02 14:31:47;;;;;;;;;;;19.50;53.70;;;;;;5047614;28;1171;-70
2022/04/02 14:34:22;;;;;;;;;;;19.50;53.80;;;;;;5042716;28;1327;-70
2022/04/02 14:37:06;;;;;;;;;;;19.50;53.80;;;;;;5048398;28;1401;-70
2022/04/02 14:39:37;;;;;;;;;;;19.50;53.80;;;;;;5054921;22;3807;-67
2022/04/02 14:42:07;;;;;;;;;;;19.50;53.80;;;;;;5023918;28;1162;-67
2022/04/02 14:44:51;;;;;;;;;;;19.50;53.80;;;;;;5013373;28;1359;-69